sensor_id;sensor_type;location;lat;lon;timestamp;P1;durP1;ratioP1;P2;durP2;ratioP2
51525;SDS011;37611;51.794;21.590;2023-02-26T00:03:16;7.00;;;4.50;;
51525;SDS011;37611;51.794;21.590;2023-02-26T00:07:18;4.70;;;4.20;;
51525;SDS011;37611;51.794;21.590;2023-02-26T00:11:20;6.30;;;4.90;;
51525;SDS011;37611;51.794;21.590;2023-02-26T00:15:22;6.60;;;5.30;;
51525;SDS011;37611;51.794;21.590;2023-02-26T00:19:24;5.60;;;4.10;;
51525;SDS011;37611;51.794;21.590;2023-02-26T00:23:26;4.30;;;3.60;;
51525;SDS011;37611;51.794;21.590;2023-02-26T00:27:28;5.80;;;4.00;;
51525;SDS011;37611;51.794;21.590;2023-02-26T00:31:30;4.70;;;3.70;;
51525;SDS011;37611;51.794;21.590;2023-02-26T00:35:32;5.30;;;4.60;;
51525;SDS011;37611;51.794;21.590;2023-02-26T00:43:39;4.10;;;3.60;;
51525;SDS011;37611;51.794;21.590;2023-02-26T00:52:01;5.50;;;4.30;;
51525;SDS011;37611;51.794;21.590;2023-02-26T00:56:06;4.60;;;3.60;;
51525;SDS011;37611;51.794;21.590;2023-02-26T01:00:08;4.60;;;3.80;;
51525;SDS011;37611;51.794;21.590;2023-02-26T01:04:11;4.50;;;3.80;;
51525;SDS011;37611;51.794;21.590;2023-02-26T01:08:25;6.60;;;5.80;;
51525;SDS011;37611;51.794;21.590;2023-02-26T01:12:32;4.50;;;3.50;;
51525;SDS011;37611;51.794;21.590;2023-02-26T01:16:37;4.20;;;3.60;;
51525;SDS011;37611;51.794;21.590;2023-02-26T01:20:50;4.20;;;3.70;;
51525;SDS011;37611;51.794;21.590;2023-02-26T01:25:01;4.20;;;3.80;;
51525;SDS011;37611;51.794;21.590;2023-02-26T01:29:08;5.70;;;4.00;;
51525;SDS011;37611;51.794;21.590;2023-02-26T01:33:18;5.10;;;3.70;;
51525;SDS011;37611;51.794;21.590;2023-02-26T01:42:17;4.70;;;3.80;;
51525;SDS011;37611;51.794;21.590;2023-02-26T01:50:33;4.70;;;3.60;;
51525;SDS011;37611;51.794;21.590;2023-02-26T01:54:37;3.80;;;3.40;;
51525;SDS011;37611;51.794;21.590;2023-02-26T01:58:39;4.70;;;3.60;;
51525;SDS011;37611;51.794;21.590;2023-02-26T02:02:41;4.80;;;3.40;;
51525;SDS011;37611;51.794;21.590;2023-02-26T02:06:44;5.90;;;3.80;;
51525;SDS011;37611;51.794;21.590;2023-02-26T02:10:47;3.70;;;3.20;;
51525;SDS011;37611;51.794;21.590;2023-02-26T02:15:07;4.80;;;4.00;;
51525;SDS011;37611;51.794;21.590;2023-02-26T02:31:52;4.50;;;3.60;;
51525;SDS011;37611;51.794;21.590;2023-02-26T02:36:03;7.00;;;3.60;;
51525;SDS011;37611;51.794;21.590;2023-02-26T02:40:12;4.10;;;3.50;;
51525;SDS011;37611;51.794;21.590;2023-02-26T02:44:38;4.00;;;3.30;;
51525;SDS011;37611;51.794;21.590;2023-02-26T02:48:48;5.20;;;3.00;;
51525;SDS011;37611;51.794;21.590;2023-02-26T02:53:00;4.00;;;3.60;;
51525;SDS011;37611;51.794;21.590;2023-02-26T02:57:16;6.20;;;4.50;;
51525;SDS011;37611;51.794;21.590;2023-02-26T03:01:22;5.10;;;3.60;;
51525;SDS011;37611;51.794;21.590;2023-02-26T03:05:27;3.40;;;3.00;;
51525;SDS011;37611;51.794;21.590;2023-02-26T03:09:29;4.30;;;3.90;;
51525;SDS011;37611;51.794;21.590;2023-02-26T03:13:31;5.20;;;3.80;;
51525;SDS011;37611;51.794;21.590;2023-02-26T03:17:44;4.20;;;3.60;;
51525;SDS011;37611;51.794;21.590;2023-02-26T03:21:53;4.40;;;3.10;;
51525;SDS011;37611;51.794;21.590;2023-02-26T03:26:07;4.00;;;3.40;;
51525;SDS011;37611;51.794;21.590;2023-02-26T03:30:21;4.30;;;3.70;;
51525;SDS011;37611;51.794;21.590;2023-02-26T03:34:42;4.60;;;4.00;;
51525;SDS011;37611;51.794;21.590;2023-02-26T03:38:53;4.50;;;3.90;;
51525;SDS011;37611;51.794;21.590;2023-02-26T03:43:01;5.00;;;4.00;;
51525;SDS011;37611;51.794;21.590;2023-02-26T03:47:18;4.30;;;3.50;;
51525;SDS011;37611;51.794;21.590;2023-02-26T03:51:20;5.20;;;3.30;;
51525;SDS011;37611;51.794;21.590;2023-02-26T03:55:28;4.70;;;3.70;;
51525;SDS011;37611;51.794;21.590;2023-02-26T03:59:34;3.70;;;3.20;;
51525;SDS011;37611;51.794;21.590;2023-02-26T04:03:44;4.30;;;3.40;;
51525;SDS011;37611;51.794;21.590;2023-02-26T04:07:50;4.90;;;3.70;;
51525;SDS011;37611;51.794;21.590;2023-02-26T04:11:53;4.40;;;3.70;;
51525;SDS011;37611;51.794;21.590;2023-02-26T04:15:57;4.80;;;3.60;;
51525;SDS011;37611;51.794;21.590;2023-02-26T04:19:59;4.50;;;4.00;;
51525;SDS011;37611;51.794;21.590;2023-02-26T04:24:01;5.40;;;3.90;;
51525;SDS011;37611;51.794;21.590;2023-02-26T04:28:03;5.20;;;3.80;;
51525;SDS011;37611;51.794;21.590;2023-02-26T04:32:04;4.00;;;3.50;;
51525;SDS011;37611;51.794;21.590;2023-02-26T04:36:07;4.40;;;3.60;;
51525;SDS011;37611;51.794;21.590;2023-02-26T04:40:09;3.80;;;3.40;;
51525;SDS011;37611;51.794;21.590;2023-02-26T04:44:11;4.80;;;3.80;;
51525;SDS011;37611;51.794;21.590;2023-02-26T04:48:14;4.20;;;3.60;;
51525;SDS011;37611;51.794;21.590;2023-02-26T04:52:16;4.10;;;3.30;;
51525;SDS011;37611;51.794;21.590;2023-02-26T04:56:18;4.90;;;3.70;;
51525;SDS011;37611;51.794;21.590;2023-02-26T05:00:20;5.00;;;4.10;;
51525;SDS011;37611;51.794;21.590;2023-02-26T05:04:22;6.70;;;5.20;;
51525;SDS011;37611;51.794;21.590;2023-02-26T05:08:24;24.90;;;12.40;;
51525;SDS011;37611;51.794;21.590;2023-02-26T05:12:26;21.80;;;12.10;;
51525;SDS011;37611;51.794;21.590;2023-02-26T05:16:27;30.00;;;13.50;;
51525;SDS011;37611;51.794;21.590;2023-02-26T05:20:29;9.00;;;6.40;;
51525;SDS011;37611;51.794;21.590;2023-02-26T05:24:31;11.40;;;8.50;;
51525;SDS011;37611;51.794;21.590;2023-02-26T05:28:33;6.00;;;4.50;;
51525;SDS011;37611;51.794;21.590;2023-02-26T05:32:36;5.00;;;4.00;;
51525;SDS011;37611;51.794;21.590;2023-02-26T05:36:38;4.50;;;3.80;;
51525;SDS011;37611;51.794;21.590;2023-02-26T05:40:40;5.70;;;4.30;;
51525;SDS011;37611;51.794;21.590;2023-02-26T05:44:42;10.00;;;9.00;;
51525;SDS011;37611;51.794;21.590;2023-02-26T05:48:44;5.80;;;4.20;;
51525;SDS011;37611;51.794;21.590;2023-02-26T05:52:46;4.90;;;3.30;;
51525;SDS011;37611;51.794;21.590;2023-02-26T05:56:48;4.60;;;3.80;;
51525;SDS011;37611;51.794;21.590;2023-02-26T06:00:50;4.50;;;3.00;;
51525;SDS011;37611;51.794;21.590;2023-02-26T06:04:52;3.60;;;3.30;;
51525;SDS011;37611;51.794;21.590;2023-02-26T06:08:53;3.10;;;2.50;;
51525;SDS011;37611;51.794;21.590;2023-02-26T06:12:55;2.60;;;2.00;;
51525;SDS011;37611;51.794;21.590;2023-02-26T06:16:57;2.90;;;2.60;;
51525;SDS011;37611;51.794;21.590;2023-02-26T06:21:00;5.80;;;3.90;;
51525;SDS011;37611;51.794;21.590;2023-02-26T06:25:02;6.50;;;4.60;;
51525;SDS011;37611;51.794;21.590;2023-02-26T06:29:04;6.30;;;4.20;;
51525;SDS011;37611;51.794;21.590;2023-02-26T06:33:06;9.10;;;5.40;;
51525;SDS011;37611;51.794;21.590;2023-02-26T06:37:08;7.90;;;5.00;;
51525;SDS011;37611;51.794;21.590;2023-02-26T06:41:10;7.50;;;6.00;;
51525;SDS011;37611;51.794;21.590;2023-02-26T06:45:12;5.00;;;3.70;;
51525;SDS011;37611;51.794;21.590;2023-02-26T06:49:14;8.20;;;4.30;;
51525;SDS011;37611;51.794;21.590;2023-02-26T06:53:16;5.80;;;3.90;;
51525;SDS011;37611;51.794;21.590;2023-02-26T06:57:18;6.20;;;3.50;;
51525;SDS011;37611;51.794;21.590;2023-02-26T07:01:19;4.70;;;3.60;;
51525;SDS011;37611;51.794;21.590;2023-02-26T07:05:21;4.70;;;3.70;;
51525;SDS011;37611;51.794;21.590;2023-02-26T07:09:23;5.80;;;4.40;;
51525;SDS011;37611;51.794;21.590;2023-02-26T07:13:25;9.80;;;8.20;;
51525;SDS011;37611;51.794;21.590;2023-02-26T07:17:27;9.00;;;5.90;;
51525;SDS011;37611;51.794;21.590;2023-02-26T07:21:28;10.60;;;6.30;;
51525;SDS011;37611;51.794;21.590;2023-02-26T07:25:30;7.50;;;4.70;;
51525;SDS011;37611;51.794;21.590;2023-02-26T07:29:32;7.80;;;6.50;;
51525;SDS011;37611;51.794;21.590;2023-02-26T07:33:34;8.00;;;5.20;;
51525;SDS011;37611;51.794;21.590;2023-02-26T07:37:36;8.60;;;6.90;;
51525;SDS011;37611;51.794;21.590;2023-02-26T07:41:38;6.20;;;4.50;;
51525;SDS011;37611;51.794;21.590;2023-02-26T07:45:39;10.20;;;4.90;;
51525;SDS011;37611;51.794;21.590;2023-02-26T07:49:41;27.10;;;18.00;;
51525;SDS011;37611;51.794;21.590;2023-02-26T07:53:43;25.70;;;15.50;;
51525;SDS011;37611;51.794;21.590;2023-02-26T07:57:45;20.80;;;11.70;;
51525;SDS011;37611;51.794;21.590;2023-02-26T08:01:47;94.90;;;43.80;;
51525;SDS011;37611;51.794;21.590;2023-02-26T08:05:48;23.20;;;12.30;;
51525;SDS011;37611;51.794;21.590;2023-02-26T08:09:50;66.00;;;29.50;;
51525;SDS011;37611;51.794;21.590;2023-02-26T08:13:52;69.70;;;39.50;;
51525;SDS011;37611;51.794;21.590;2023-02-26T08:17:54;33.00;;;19.80;;
51525;SDS011;37611;51.794;21.590;2023-02-26T08:21:57;16.70;;;10.80;;
51525;SDS011;37611;51.794;21.590;2023-02-26T08:25:59;25.60;;;15.40;;
51525;SDS011;37611;51.794;21.590;2023-02-26T08:30:03;32.40;;;20.20;;
51525;SDS011;37611;51.794;21.590;2023-02-26T08:34:07;21.40;;;12.50;;
51525;SDS011;37611;51.794;21.590;2023-02-26T08:38:10;39.40;;;20.50;;
51525;SDS011;37611;51.794;21.590;2023-02-26T08:42:11;17.80;;;14.40;;
51525;SDS011;37611;51.794;21.590;2023-02-26T08:46:16;10.50;;;8.40;;
51525;SDS011;37611;51.794;21.590;2023-02-26T08:50:18;13.40;;;9.20;;
51525;SDS011;37611;51.794;21.590;2023-02-26T08:54:20;20.60;;;13.10;;
51525;SDS011;37611;51.794;21.590;2023-02-26T08:58:22;12.00;;;8.90;;
51525;SDS011;37611;51.794;21.590;2023-02-26T09:02:23;13.40;;;9.40;;
51525;SDS011;37611;51.794;21.590;2023-02-26T09:06:25;11.10;;;8.90;;
51525;SDS011;37611;51.794;21.590;2023-02-26T09:10:27;8.70;;;5.20;;
51525;SDS011;37611;51.794;21.590;2023-02-26T09:14:29;7.70;;;6.90;;
51525;SDS011;37611;51.794;21.590;2023-02-26T09:18:31;10.50;;;7.00;;
51525;SDS011;37611;51.794;21.590;2023-02-26T09:22:33;37.50;;;22.60;;
51525;SDS011;37611;51.794;21.590;2023-02-26T09:26:35;8.30;;;6.10;;
51525;SDS011;37611;51.794;21.590;2023-02-26T09:30:38;13.40;;;7.30;;
51525;SDS011;37611;51.794;21.590;2023-02-26T09:34:41;17.00;;;8.90;;
51525;SDS011;37611;51.794;21.590;2023-02-26T09:38:42;20.20;;;11.30;;
51525;SDS011;37611;51.794;21.590;2023-02-26T09:43:01;25.70;;;15.10;;
51525;SDS011;37611;51.794;21.590;2023-02-26T09:47:20;62.00;;;26.00;;
51525;SDS011;37611;51.794;21.590;2023-02-26T09:51:26;53.30;;;27.70;;
51525;SDS011;37611;51.794;21.590;2023-02-26T09:59:36;84.50;;;36.30;;
51525;SDS011;37611;51.794;21.590;2023-02-26T10:07:57;63.70;;;22.20;;
51525;SDS011;37611;51.794;21.590;2023-02-26T10:16:10;46.10;;;24.50;;
51525;SDS011;37611;51.794;21.590;2023-02-26T10:24:36;31.90;;;17.40;;
51525;SDS011;37611;51.794;21.590;2023-02-26T10:33:02;15.10;;;9.00;;
51525;SDS011;37611;51.794;21.590;2023-02-26T10:37:18;26.80;;;12.10;;
51525;SDS011;37611;51.794;21.590;2023-02-26T10:41:24;80.20;;;39.80;;
51525;SDS011;37611;51.794;21.590;2023-02-26T10:58:23;25.60;;;14.10;;
51525;SDS011;37611;51.794;21.590;2023-02-26T11:06:54;13.20;;;7.60;;
51525;SDS011;37611;51.794;21.590;2023-02-26T11:11:00;10.70;;;6.20;;
51525;SDS011;37611;51.794;21.590;2023-02-26T11:15:04;13.00;;;8.20;;
51525;SDS011;37611;51.794;21.590;2023-02-26T11:19:06;19.00;;;11.40;;
51525;SDS011;37611;51.794;21.590;2023-02-26T11:23:12;16.80;;;9.70;;
51525;SDS011;37611;51.794;21.590;2023-02-26T11:27:21;9.20;;;6.10;;
51525;SDS011;37611;51.794;21.590;2023-02-26T11:31:26;11.10;;;7.90;;
51525;SDS011;37611;51.794;21.590;2023-02-26T11:35:29;9.50;;;6.10;;
51525;SDS011;37611;51.794;21.590;2023-02-26T11:39:32;6.30;;;4.60;;
51525;SDS011;37611;51.794;21.590;2023-02-26T11:43:41;4.90;;;3.40;;
51525;SDS011;37611;51.794;21.590;2023-02-26T11:47:45;8.80;;;5.10;;
51525;SDS011;37611;51.794;21.590;2023-02-26T11:52:00;5.90;;;4.50;;
51525;SDS011;37611;51.794;21.590;2023-02-26T11:56:23;16.90;;;10.00;;
51525;SDS011;37611;51.794;21.590;2023-02-26T12:00:32;17.00;;;10.50;;
51525;SDS011;37611;51.794;21.590;2023-02-26T12:04:38;11.70;;;8.80;;
51525;SDS011;37611;51.794;21.590;2023-02-26T12:08:44;18.70;;;13.20;;
51525;SDS011;37611;51.794;21.590;2023-02-26T12:21:12;70.00;;;31.90;;
51525;SDS011;37611;51.794;21.590;2023-02-26T12:25:35;58.00;;;32.10;;
51525;SDS011;37611;51.794;21.590;2023-02-26T12:38:19;40.20;;;20.20;;
51525;SDS011;37611;51.794;21.590;2023-02-26T12:42:59;91.90;;;32.90;;
51525;SDS011;37611;51.794;21.590;2023-02-26T12:47:18;63.20;;;31.10;;
51525;SDS011;37611;51.794;21.590;2023-02-26T13:09:21;21.60;;;12.40;;
51525;SDS011;37611;51.794;21.590;2023-02-26T13:22:16;14.80;;;9.80;;
51525;SDS011;37611;51.794;21.590;2023-02-26T13:26:21;22.20;;;13.90;;
51525;SDS011;37611;51.794;21.590;2023-02-26T13:30:43;21.50;;;12.80;;
51525;SDS011;37611;51.794;21.590;2023-02-26T13:34:58;10.70;;;7.30;;
51525;SDS011;37611;51.794;21.590;2023-02-26T13:39:12;18.20;;;11.90;;
51525;SDS011;37611;51.794;21.590;2023-02-26T13:52:21;31.90;;;17.00;;
51525;SDS011;37611;51.794;21.590;2023-02-26T14:00:33;10.00;;;6.60;;
51525;SDS011;37611;51.794;21.590;2023-02-26T14:10:16;15.80;;;9.40;;
51525;SDS011;37611;51.794;21.590;2023-02-26T14:14:09;16.10;;;9.10;;
51525;SDS011;37611;51.794;21.590;2023-02-26T14:18:36;18.10;;;9.20;;
51525;SDS011;37611;51.794;21.590;2023-02-26T14:22:56;14.00;;;8.00;;
51525;SDS011;37611;51.794;21.590;2023-02-26T14:31:15;19.80;;;9.90;;
51525;SDS011;37611;51.794;21.590;2023-02-26T14:39:28;26.90;;;15.30;;
51525;SDS011;37611;51.794;21.590;2023-02-26T14:43:41;16.70;;;9.90;;
51525;SDS011;37611;51.794;21.590;2023-02-26T14:47:46;18.10;;;10.40;;
51525;SDS011;37611;51.794;21.590;2023-02-26T15:22:15;84.30;;;37.80;;
51525;SDS011;37611;51.794;21.590;2023-02-26T15:26:20;32.40;;;17.20;;
51525;SDS011;37611;51.794;21.590;2023-02-26T15:30:24;29.20;;;16.50;;
51525;SDS011;37611;51.794;21.590;2023-02-26T15:34:26;27.20;;;14.40;;
51525;SDS011;37611;51.794;21.590;2023-02-26T15:38:28;23.30;;;14.40;;
51525;SDS011;37611;51.794;21.590;2023-02-26T15:42:32;23.80;;;12.70;;
51525;SDS011;37611;51.794;21.590;2023-02-26T15:46:39;14.80;;;8.90;;
51525;SDS011;37611;51.794;21.590;2023-02-26T15:50:44;23.90;;;14.50;;
51525;SDS011;37611;51.794;21.590;2023-02-26T15:54:51;27.00;;;15.50;;
51525;SDS011;37611;51.794;21.590;2023-02-26T15:58:59;28.20;;;15.40;;
51525;SDS011;37611;51.794;21.590;2023-02-26T16:03:03;23.50;;;13.70;;
51525;SDS011;37611;51.794;21.590;2023-02-26T16:07:05;36.60;;;20.50;;
51525;SDS011;37611;51.794;21.590;2023-02-26T16:11:07;32.60;;;17.90;;
51525;SDS011;37611;51.794;21.590;2023-02-26T16:15:15;32.50;;;17.30;;
51525;SDS011;37611;51.794;21.590;2023-02-26T16:23:47;47.00;;;24.50;;
51525;SDS011;37611;51.794;21.590;2023-02-26T16:32:16;28.50;;;17.70;;
51525;SDS011;37611;51.794;21.590;2023-02-26T16:36:19;30.30;;;18.70;;
51525;SDS011;37611;51.794;21.590;2023-02-26T16:40:26;24.20;;;13.20;;
51525;SDS011;37611;51.794;21.590;2023-02-26T16:48:36;36.00;;;20.50;;
51525;SDS011;37611;51.794;21.590;2023-02-26T16:52:46;63.10;;;37.70;;
51525;SDS011;37611;51.794;21.590;2023-02-26T16:56:59;148.60;;;77.10;;
51525;SDS011;37611;51.794;21.590;2023-02-26T17:01:15;76.50;;;42.90;;
51525;SDS011;37611;51.794;21.590;2023-02-26T17:05:20;69.10;;;38.30;;
51525;SDS011;37611;51.794;21.590;2023-02-26T17:09:38;37.60;;;24.40;;
51525;SDS011;37611;51.794;21.590;2023-02-26T17:13:43;44.60;;;26.60;;
51525;SDS011;37611;51.794;21.590;2023-02-26T17:17:45;33.60;;;20.20;;
51525;SDS011;37611;51.794;21.590;2023-02-26T17:21:48;36.50;;;23.80;;
51525;SDS011;37611;51.794;21.590;2023-02-26T17:25:54;41.70;;;24.30;;
51525;SDS011;37611;51.794;21.590;2023-02-26T17:29:57;34.90;;;21.00;;
51525;SDS011;37611;51.794;21.590;2023-02-26T17:34:01;37.50;;;19.50;;
51525;SDS011;37611;51.794;21.590;2023-02-26T17:38:02;41.10;;;24.60;;
51525;SDS011;37611;51.794;21.590;2023-02-26T17:42:12;37.50;;;21.80;;
51525;SDS011;37611;51.794;21.590;2023-02-26T17:46:16;39.00;;;22.10;;
51525;SDS011;37611;51.794;21.590;2023-02-26T17:54:36;47.10;;;27.80;;
51525;SDS011;37611;51.794;21.590;2023-02-26T17:58:38;49.80;;;28.70;;
51525;SDS011;37611;51.794;21.590;2023-02-26T18:02:41;43.70;;;27.20;;
51525;SDS011;37611;51.794;21.590;2023-02-26T18:06:43;64.30;;;35.60;;
51525;SDS011;37611;51.794;21.590;2023-02-26T18:10:46;50.80;;;26.70;;
51525;SDS011;37611;51.794;21.590;2023-02-26T18:14:52;29.80;;;16.20;;
51525;SDS011;37611;51.794;21.590;2023-02-26T18:18:53;40.50;;;19.20;;
51525;SDS011;37611;51.794;21.590;2023-02-26T18:22:55;151.60;;;74.50;;
51525;SDS011;37611;51.794;21.590;2023-02-26T18:26:57;65.50;;;33.70;;
51525;SDS011;37611;51.794;21.590;2023-02-26T18:30:59;44.30;;;26.10;;
51525;SDS011;37611;51.794;21.590;2023-02-26T18:35:02;45.40;;;27.50;;
51525;SDS011;37611;51.794;21.590;2023-02-26T18:39:07;59.70;;;33.60;;
51525;SDS011;37611;51.794;21.590;2023-02-26T18:43:13;44.30;;;27.80;;
51525;SDS011;37611;51.794;21.590;2023-02-26T18:47:16;50.70;;;28.60;;
51525;SDS011;37611;51.794;21.590;2023-02-26T18:51:19;55.20;;;30.20;;
51525;SDS011;37611;51.794;21.590;2023-02-26T18:55:21;74.50;;;37.60;;
51525;SDS011;37611;51.794;21.590;2023-02-26T18:59:23;63.80;;;33.60;;
51525;SDS011;37611;51.794;21.590;2023-02-26T19:03:25;55.60;;;30.80;;
51525;SDS011;37611;51.794;21.590;2023-02-26T19:07:27;63.80;;;34.20;;
51525;SDS011;37611;51.794;21.590;2023-02-26T19:11:29;100.50;;;55.70;;
51525;SDS011;37611;51.794;21.590;2023-02-26T19:15:31;95.90;;;57.20;;
51525;SDS011;37611;51.794;21.590;2023-02-26T19:19:33;79.90;;;50.30;;
51525;SDS011;37611;51.794;21.590;2023-02-26T19:23:34;99.20;;;62.00;;
51525;SDS011;37611;51.794;21.590;2023-02-26T19:27:36;97.70;;;58.60;;
51525;SDS011;37611;51.794;21.590;2023-02-26T19:31:47;135.60;;;70.10;;
51525;SDS011;37611;51.794;21.590;2023-02-26T19:35:49;175.20;;;94.50;;
51525;SDS011;37611;51.794;21.590;2023-02-26T19:39:51;126.60;;;72.90;;
51525;SDS011;37611;51.794;21.590;2023-02-26T19:43:53;109.70;;;61.00;;
51525;SDS011;37611;51.794;21.590;2023-02-26T19:47:55;84.60;;;47.70;;
51525;SDS011;37611;51.794;21.590;2023-02-26T19:51:57;92.90;;;52.60;;
51525;SDS011;37611;51.794;21.590;2023-02-26T19:55:59;128.00;;;68.10;;
51525;SDS011;37611;51.794;21.590;2023-02-26T20:00:05;161.00;;;84.30;;
51525;SDS011;37611;51.794;21.590;2023-02-26T20:04:08;202.10;;;112.80;;
51525;SDS011;37611;51.794;21.590;2023-02-26T20:08:10;118.30;;;67.60;;
51525;SDS011;37611;51.794;21.590;2023-02-26T20:12:12;87.20;;;48.80;;
51525;SDS011;37611;51.794;21.590;2023-02-26T20:16:14;82.20;;;46.60;;
51525;SDS011;37611;51.794;21.590;2023-02-26T20:20:16;79.00;;;45.40;;
51525;SDS011;37611;51.794;21.590;2023-02-26T20:24:18;78.70;;;44.50;;
51525;SDS011;37611;51.794;21.590;2023-02-26T20:28:20;108.30;;;57.10;;
51525;SDS011;37611;51.794;21.590;2023-02-26T20:32:22;95.00;;;51.90;;
51525;SDS011;37611;51.794;21.590;2023-02-26T20:36:27;89.90;;;50.20;;
51525;SDS011;37611;51.794;21.590;2023-02-26T20:40:30;57.70;;;34.80;;
51525;SDS011;37611;51.794;21.590;2023-02-26T20:44:32;57.30;;;34.20;;
51525;SDS011;37611;51.794;21.590;2023-02-26T20:48:34;61.20;;;38.20;;
51525;SDS011;37611;51.794;21.590;2023-02-26T20:52:41;56.90;;;33.60;;
51525;SDS011;37611;51.794;21.590;2023-02-26T20:56:43;47.30;;;29.70;;
51525;SDS011;37611;51.794;21.590;2023-02-26T21:00:45;50.10;;;31.70;;
51525;SDS011;37611;51.794;21.590;2023-02-26T21:04:47;47.30;;;29.80;;
51525;SDS011;37611;51.794;21.590;2023-02-26T21:08:49;48.50;;;31.50;;
51525;SDS011;37611;51.794;21.590;2023-02-26T21:12:50;49.20;;;31.80;;
51525;SDS011;37611;51.794;21.590;2023-02-26T21:16:52;80.20;;;40.20;;
51525;SDS011;37611;51.794;21.590;2023-02-26T21:20:57;246.70;;;90.10;;
51525;SDS011;37611;51.794;21.590;2023-02-26T21:25:00;304.60;;;113.00;;
51525;SDS011;37611;51.794;21.590;2023-02-26T21:29:02;190.70;;;80.40;;
51525;SDS011;37611;51.794;21.590;2023-02-26T21:33:05;120.90;;;62.60;;
51525;SDS011;37611;51.794;21.590;2023-02-26T21:37:09;183.80;;;89.50;;
51525;SDS011;37611;51.794;21.590;2023-02-26T21:41:12;149.90;;;78.70;;
51525;SDS011;37611;51.794;21.590;2023-02-26T21:45:14;120.60;;;62.70;;
51525;SDS011;37611;51.794;21.590;2023-02-26T21:49:16;119.10;;;65.30;;
51525;SDS011;37611;51.794;21.590;2023-02-26T21:53:18;67.70;;;37.00;;
51525;SDS011;37611;51.794;21.590;2023-02-26T21:57:20;35.60;;;21.00;;
51525;SDS011;37611;51.794;21.590;2023-02-26T22:01:22;30.50;;;21.70;;
51525;SDS011;37611;51.794;21.590;2023-02-26T22:05:25;26.60;;;16.30;;
51525;SDS011;37611;51.794;21.590;2023-02-26T22:09:26;28.00;;;18.00;;
51525;SDS011;37611;51.794;21.590;2023-02-26T22:13:28;24.90;;;16.30;;
51525;SDS011;37611;51.794;21.590;2023-02-26T22:17:30;25.80;;;15.80;;
51525;SDS011;37611;51.794;21.590;2023-02-26T22:21:32;21.40;;;13.50;;
51525;SDS011;37611;51.794;21.590;2023-02-26T22:25:34;21.90;;;13.10;;
51525;SDS011;37611;51.794;21.590;2023-02-26T22:29:35;23.70;;;14.70;;
51525;SDS011;37611;51.794;21.590;2023-02-26T22:33:39;39.10;;;23.40;;
51525;SDS011;37611;51.794;21.590;2023-02-26T22:37:41;49.50;;;32.10;;
51525;SDS011;37611;51.794;21.590;2023-02-26T22:41:43;45.80;;;29.10;;
51525;SDS011;37611;51.794;21.590;2023-02-26T22:45:46;38.50;;;24.60;;
51525;SDS011;37611;51.794;21.590;2023-02-26T22:49:48;36.60;;;21.00;;
51525;SDS011;37611;51.794;21.590;2023-02-26T22:53:50;34.20;;;21.40;;
51525;SDS011;37611;51.794;21.590;2023-02-26T22:57:52;32.60;;;22.00;;
51525;SDS011;37611;51.794;21.590;2023-02-26T23:01:53;42.30;;;27.60;;
51525;SDS011;37611;51.794;21.590;2023-02-26T23:05:56;37.00;;;23.00;;
51525;SDS011;37611;51.794;21.590;2023-02-26T23:09:59;37.00;;;23.30;;
51525;SDS011;37611;51.794;21.590;2023-02-26T23:14:01;34.90;;;21.40;;
51525;SDS011;37611;51.794;21.590;2023-02-26T23:18:03;40.60;;;23.80;;
51525;SDS011;37611;51.794;21.590;2023-02-26T23:22:05;38.20;;;22.80;;
51525;SDS011;37611;51.794;21.590;2023-02-26T23:26:07;33.90;;;22.40;;
51525;SDS011;37611;51.794;21.590;2023-02-26T23:30:09;39.00;;;24.00;;
51525;SDS011;37611;51.794;21.590;2023-02-26T23:34:12;37.90;;;23.50;;
51525;SDS011;37611;51.794;21.590;2023-02-26T23:38:14;44.20;;;27.60;;
51525;SDS011;37611;51.794;21.590;2023-02-26T23:42:16;40.20;;;24.00;;
51525;SDS011;37611;51.794;21.590;2023-02-26T23:46:18;39.20;;;22.30;;
51525;SDS011;37611;51.794;21.590;2023-02-26T23:50:19;33.90;;;21.00;;
51525;SDS011;37611;51.794;21.590;2023-02-26T23:54:21;33.50;;;19.20;;
51525;SDS011;37611;51.794;21.590;2023-02-26T23:58:24;42.30;;;24.40;;
